Time;durP1;ratioP1;P1;durP2;ratioP2;P2;SDS_P1;SDS_P2;PMS_P1;PMS_P2;Temp;Humidity;BMP_temperature;BMP_pressure;BME280_temperature;BME280_humidity;BME280_pressure;Samples;Min_cycle;Max_cycle;Signal;HPM_P1;HPM_P2
2021/10/13 00:00:11;;;;;;;8.68;7.45;;;4.90;99.90;;;;;;5073661;28;20247;-48
2021/10/13 00:02:38;;;;;;;14.18;7.07;;;5.00;99.90;;;;;;5069059;28;20514;-47
2021/10/13 00:05:07;;;;;;;12.75;7.50;;;5.00;99.90;;;;;;5069124;28;20278;-47
2021/10/13 00:07:35;;;;;;;8.05;7.25;;;5.00;99.90;;;;;;5067075;28;20202;-46
2021/10/13 00:10:04;;;;;;;9.45;6.57;;;5.00;99.90;;;;;;5070106;28;20351;-47
2021/10/13 00:12:33;;;;;;;11.93;8.18;;;5.10;99.90;;;;;;5058926;28;20483;-43
2021/10/13 00:15:05;;;;;;;7.72;6.97;;;5.20;99.90;;;;;;5063090;28;20210;-48
2021/10/13 00:17:32;;;;;;;12.25;6.50;;;5.30;99.90;;;;;;5074668;28;20281;-45
2021/10/13 00:20:02;;;;;;;6.72;5.93;;;5.40;99.90;;;;;;5070763;28;20203;-45
2021/10/13 00:22:29;;;;;;;6.63;6.03;;;5.40;99.90;;;;;;5059019;28;20234;-43
2021/10/13 00:24:56;;;;;;;14.65;7.55;;;5.50;99.90;;;;;;5073416;28;20251;-48
2021/10/13 00:27:23;;;;;;;7.75;6.28;;;5.50;99.90;;;;;;5073418;28;20243;-46
2021/10/13 00:29:50;;;;;;;8.32;6.43;;;5.50;99.90;;;;;;5079949;28;20241;-43
2021/10/13 00:32:18;;;;;;;8.32;5.35;;;5.50;99.90;;;;;;5075343;28;20533;-44
2021/10/13 00:34:45;;;;;;;6.97;6.05;;;5.50;99.90;;;;;;5062015;28;20489;-46
2021/10/13 00:37:12;;;;;;;9.98;7.47;;;5.50;99.90;;;;;;5065606;28;20253;-44
2021/10/13 00:39:39;;;;;;;11.20;6.35;;;5.60;99.90;;;;;;5068706;28;20257;-46
2021/10/13 00:42:07;;;;;;;7.95;5.43;;;5.60;99.90;;;;;;5063055;28;20447;-48
2021/10/13 00:44:34;;;;;;;11.27;6.22;;;5.60;99.90;;;;;;5068849;28;20203;-49
2021/10/13 00:47:01;;;;;;;5.50;5.00;;;5.60;99.90;;;;;;5070424;28;20194;-46
2021/10/13 00:49:28;;;;;;;10.65;5.70;;;5.60;99.90;;;;;;5071071;28;20267;-48
2021/10/13 00:51:56;;;;;;;6.68;4.45;;;5.60;99.90;;;;;;5068770;28;20224;-46
2021/10/13 00:54:24;;;;;;;6.63;4.72;;;5.60;99.90;;;;;;5079033;28;20245;-47
2021/10/13 00:56:51;;;;;;;7.60;6.05;;;5.60;99.90;;;;;;5067288;28;20278;-44
2021/10/13 00:59:18;;;;;;;8.38;4.82;;;5.80;99.90;;;;;;5082881;28;20205;-45
2021/10/13 01:01:53;;;;;;;7.18;5.80;;;5.70;99.90;;;;;;5080230;28;20226;-45
2021/10/13 01:04:29;;;;;;;5.68;4.45;;;5.70;99.90;;;;;;5067751;28;20226;-44
2021/10/13 01:07:34;;;;;;;4.95;4.20;;;5.50;99.90;;;;;;5078639;28;20204;-48
2021/10/13 01:10:14;;;;;;;6.60;5.90;;;5.40;99.90;;;;;;5066764;28;20506;-44
2021/10/13 01:13:23;;;;;;;5.40;4.90;;;5.30;99.90;;;;;;5063343;28;20576;-44
2021/10/13 01:16:22;;;;;;;8.45;5.53;;;5.10;99.90;;;;;;5070865;28;20207;-44
2021/10/13 01:19:01;;;;;;;6.30;5.80;;;5.10;99.90;;;;;;5072336;28;20597;-50
2021/10/13 01:22:19;;;;;;;7.53;6.40;;;5.00;99.90;;;;;;5074619;28;20227;-43
2021/10/13 01:25:16;;;;;;;10.30;7.60;;;5.00;99.90;;;;;;5032493;28;20406;-44
2021/10/13 01:28:00;;;;;;;6.90;6.20;;;4.90;99.90;;;;;;5071868;28;20194;-45
2021/10/13 01:30:33;;;;;;;8.95;5.30;;;4.90;99.90;;;;;;5051722;28;20197;-48
2021/10/13 01:33:10;;;;;;;8.10;5.75;;;5.00;99.90;;;;;;5079037;28;20226;-45
2021/10/13 01:35:44;;;;;;;8.23;5.40;;;4.90;99.90;;;;;;5069226;28;20202;-51
2021/10/13 01:38:16;;;;;;;7.10;5.13;;;4.90;99.90;;;;;;5073586;28;20251;-47
2021/10/13 01:40:45;;;;;;;5.78;5.22;;;4.90;99.90;;;;;;5076100;28;20199;-43
2021/10/13 01:43:15;;;;;;;5.13;4.72;;;5.00;99.90;;;;;;5070783;28;20233;-53
2021/10/13 01:45:45;;;;;;;4.63;4.22;;;5.10;99.90;;;;;;5071344;28;20196;-45
2021/10/13 01:48:13;;;;;;;7.07;4.60;;;5.10;99.90;;;;;;5062729;28;20190;-43
2021/10/13 01:50:44;;;;;;;7.25;5.60;;;4.90;99.90;;;;;;5074995;28;20240;-43
2021/10/13 01:53:19;;;;;;;6.40;5.80;;;5.00;99.90;;;;;;5068918;28;20225;-48
2021/10/13 01:55:48;;;;;;;6.28;5.10;;;5.00;99.90;;;;;;5069181;28;20223;-44
2021/10/13 01:58:17;;;;;;;5.75;5.25;;;4.90;99.90;;;;;;5074914;28;20218;-46
2021/10/13 02:00:50;;;;;;;6.38;5.43;;;5.00;99.90;;;;;;5070521;28;20200;-43
2021/10/13 02:03:22;;;;;;;6.22;4.97;;;4.80;99.90;;;;;;5077748;28;20579;-46
2021/10/13 02:05:52;;;;;;;7.25;5.72;;;4.80;99.90;;;;;;5072017;28;20243;-42
2021/10/13 02:08:21;;;;;;;8.60;6.25;;;4.80;99.90;;;;;;5067451;28;20259;-44
2021/10/13 02:10:52;;;;;;;8.20;6.05;;;4.80;99.90;;;;;;5062125;28;20202;-45
2021/10/13 02:13:20;;;;;;;6.68;6.00;;;4.60;99.90;;;;;;5074046;28;20240;-44
2021/10/13 02:15:49;;;;;;;10.45;6.53;;;4.70;99.90;;;;;;5075335;28;20236;-48
2021/10/13 02:18:24;;;;;;;7.53;5.88;;;4.70;99.90;;;;;;5081705;28;20201;-48
2021/10/13 02:20:55;;;;;;;6.75;6.15;;;4.80;99.90;;;;;;5076597;28;20220;-48
2021/10/13 02:23:31;;;;;;;8.70;5.10;;;4.80;99.90;;;;;;5073344;28;20233;-46
2021/10/13 02:26:07;;;;;;;18.70;6.90;;;4.80;99.90;;;;;;5065794;28;20259;-46
2021/10/13 02:28:40;;;;;;;5.97;5.25;;;4.60;99.90;;;;;;5068676;28;20242;-45
2021/10/13 02:31:09;;;;;;;8.02;7.05;;;4.50;99.90;;;;;;5070912;28;20193;-43
2021/10/13 02:33:37;;;;;;;6.35;5.78;;;4.60;99.90;;;;;;5067581;28;20228;-44
2021/10/13 02:36:05;;;;;;;7.22;6.47;;;4.60;99.90;;;;;;5070965;28;20208;-46
2021/10/13 02:38:32;;;;;;;7.82;7.00;;;4.40;99.90;;;;;;5064494;28;20262;-43
2021/10/13 02:41:00;;;;;;;8.73;6.20;;;4.30;99.90;;;;;;5080031;28;20201;-43
2021/10/13 02:43:27;;;;;;;9.52;7.05;;;4.20;99.90;;;;;;5061438;28;20232;-44
2021/10/13 02:46:04;;;;;;;11.13;8.68;;;4.30;99.90;;;;;;5074770;28;20251;-44
2021/10/13 02:48:33;;;;;;;7.80;6.30;;;4.20;99.90;;;;;;5066930;28;20198;-44
2021/10/13 02:51:01;;;;;;;7.57;6.50;;;4.20;99.90;;;;;;5066200;28;20197;-44
2021/10/13 02:53:36;;;;;;;11.52;5.82;;;4.20;99.90;;;;;;5068314;28;20222;-43
2021/10/13 02:56:21;;;;;;;7.30;6.13;;;4.20;99.90;;;;;;5071941;28;20201;-44
2021/10/13 02:59:01;;;;;;;12.70;6.53;;;4.10;99.90;;;;;;5074780;28;20279;-43
2021/10/13 03:01:37;;;;;;;7.95;7.18;;;4.00;99.90;;;;;;5075057;28;20206;-46
2021/10/13 03:04:06;;;;;;;6.03;5.43;;;4.00;99.90;;;;;;5067822;28;20229;-43
2021/10/13 03:06:39;;;;;;;11.52;6.80;;;4.10;99.90;;;;;;5074229;28;20223;-43
2021/10/13 03:09:08;;;;;;;7.80;7.10;;;4.20;99.90;;;;;;5063698;28;20202;-44
2021/10/13 03:11:38;;;;;;;6.40;5.50;;;4.20;99.90;;;;;;5067069;28;20240;-43
2021/10/13 03:14:07;;;;;;;7.75;6.13;;;4.10;99.90;;;;;;5059974;28;20548;-44
2021/10/13 03:16:35;;;;;;;7.35;5.68;;;4.10;99.90;;;;;;5079936;28;20225;-44
2021/10/13 03:19:04;;;;;;;9.32;6.95;;;4.00;99.90;;;;;;5070839;28;20208;-44
2021/10/13 03:21:33;;;;;;;9.02;6.68;;;4.00;99.90;;;;;;5069040;28;20239;-44
2021/10/13 03:24:00;;;;;;;7.22;5.95;;;4.00;99.90;;;;;;5071520;28;20473;-45
2021/10/13 03:26:27;;;;;;;8.23;7.28;;;4.00;99.90;;;;;;5066869;28;20251;-44
2021/10/13 03:28:54;;;;;;;7.50;6.18;;;3.90;99.90;;;;;;5068637;28;20410;-42
2021/10/13 03:31:21;;;;;;;6.78;6.05;;;3.90;99.90;;;;;;5070419;28;20197;-44
2021/10/13 03:33:49;;;;;;;7.95;7.03;;;3.90;99.90;;;;;;5069575;28;20245;-43
2021/10/13 03:36:17;;;;;;;11.98;6.80;;;4.00;99.90;;;;;;5068317;28;20436;-48
2021/10/13 03:38:44;;;;;;;9.45;7.53;;;4.00;99.90;;;;;;5076392;28;20200;-45
2021/10/13 03:41:11;;;;;;;6.97;5.80;;;3.90;99.90;;;;;;5072475;28;20205;-45
2021/10/13 03:43:49;;;;;;;7.43;6.72;;;4.10;99.90;;;;;;5075822;28;20279;-43
2021/10/13 03:46:20;;;;;;;8.45;7.05;;;3.90;99.90;;;;;;5067348;28;20197;-45
2021/10/13 03:48:50;;;;;;;7.47;6.65;;;3.90;99.90;;;;;;5069963;28;20195;-43
2021/10/13 03:51:18;;;;;;;6.88;6.28;;;3.80;99.90;;;;;;5065942;28;20197;-44
2021/10/13 03:53:46;;;;;;;6.93;6.20;;;3.90;99.90;;;;;;5067437;28;20221;-42
2021/10/13 03:56:14;;;;;;;11.70;9.60;;;3.90;99.90;;;;;;5076126;28;20203;-48
2021/10/13 03:58:41;;;;;;;7.93;7.13;;;3.90;99.90;;;;;;5073341;28;20810;-46
2021/10/13 04:01:09;;;;;;;11.40;7.70;;;4.00;99.90;;;;;;5072743;28;20226;-44
2021/10/13 04:03:36;;;;;;;9.10;7.20;;;4.10;99.90;;;;;;5066725;28;20229;-43
2021/10/13 04:06:04;;;;;;;10.20;7.35;;;4.10;99.90;;;;;;5070739;28;20197;-44
2021/10/13 04:08:31;;;;;;;14.18;6.70;;;4.20;99.90;;;;;;5065668;28;20209;-44
2021/10/13 04:10:58;;;;;;;9.30;7.70;;;4.20;99.90;;;;;;5067719;28;20389;-47
2021/10/13 04:13:26;;;;;;;8.15;7.25;;;4.20;99.90;;;;;;5071030;28;20281;-43
2021/10/13 04:15:53;;;;;;;10.02;6.78;;;4.30;99.90;;;;;;5075543;28;20209;-46
2021/10/13 04:18:20;;;;;;;11.68;8.75;;;4.50;99.90;;;;;;5072247;28;20208;-49
2021/10/13 04:20:48;;;;;;;10.90;7.40;;;4.60;99.90;;;;;;5065093;28;20281;-50
2021/10/13 04:23:16;;;;;;;11.65;7.72;;;4.60;99.90;;;;;;5065998;28;20223;-46
2021/10/13 04:25:44;;;;;;;8.82;7.07;;;4.60;99.90;;;;;;5070272;28;20243;-45
2021/10/13 04:28:11;;;;;;;9.32;7.47;;;4.60;99.90;;;;;;5069300;28;20319;-44
2021/10/13 04:30:39;;;;;;;8.68;7.88;;;4.70;99.90;;;;;;5070327;28;20190;-43
2021/10/13 04:33:06;;;;;;;11.98;7.55;;;4.70;99.90;;;;;;5067193;28;20467;-43
2021/10/13 04:35:33;;;;;;;8.73;7.03;;;4.60;99.90;;;;;;5063715;28;20247;-44
2021/10/13 04:38:05;;;;;;;9.60;7.53;;;4.60;99.90;;;;;;5066334;28;20198;-45
2021/10/13 04:40:33;;;;;;;8.13;7.38;;;4.60;99.90;;;;;;5073691;28;20202;-44
2021/10/13 04:43:01;;;;;;;8.50;7.40;;;4.50;99.90;;;;;;5067761;28;20226;-45
2021/10/13 04:45:28;;;;;;;10.50;7.90;;;4.50;99.90;;;;;;5068900;28;20203;-44
2021/10/13 04:47:55;;;;;;;9.23;7.10;;;4.60;99.90;;;;;;5074521;28;20210;-47
2021/10/13 04:50:22;;;;;;;9.73;7.63;;;4.60;99.90;;;;;;5064952;28;20206;-45
2021/10/13 04:52:50;;;;;;;7.80;6.50;;;4.60;99.90;;;;;;5073136;28;20222;-44
2021/10/13 04:55:18;;;;;;;7.25;6.55;;;4.70;99.90;;;;;;5078641;28;20559;-44
2021/10/13 04:57:45;;;;;;;6.75;6.15;;;4.60;99.90;;;;;;5082065;28;20457;-42
2021/10/13 05:00:13;;;;;;;9.55;7.85;;;4.60;99.90;;;;;;5069389;28;20224;-45
2021/10/13 05:02:40;;;;;;;8.48;7.78;;;4.70;99.90;;;;;;5069636;28;20242;-48
2021/10/13 05:05:08;;;;;;;6.75;5.78;;;4.60;99.90;;;;;;5074841;28;20236;-44
2021/10/13 05:07:35;;;;;;;8.45;7.45;;;4.50;99.90;;;;;;5072316;28;20237;-44
2021/10/13 05:10:03;;;;;;;7.78;6.85;;;4.40;99.90;;;;;;5068033;28;20214;-48
2021/10/13 05:12:30;;;;;;;9.40;7.80;;;4.30;99.90;;;;;;5064726;28;20277;-45
2021/10/13 05:14:58;;;;;;;9.35;8.43;;;4.40;99.90;;;;;;5065641;28;20437;-45
2021/10/13 05:17:25;;;;;;;9.52;8.45;;;4.50;99.90;;;;;;5077965;28;20427;-43
2021/10/13 05:19:52;;;;;;;7.32;6.63;;;4.50;99.90;;;;;;5074347;28;20232;-46
2021/10/13 05:22:19;;;;;;;8.40;7.60;;;4.60;99.90;;;;;;5070117;28;20707;-45
2021/10/13 05:24:47;;;;;;;6.43;5.80;;;4.70;99.90;;;;;;5078539;28;20201;-43
2021/10/13 05:27:14;;;;;;;11.35;8.75;;;4.90;99.90;;;;;;5074281;28;20206;-44
2021/10/13 05:29:41;;;;;;;8.13;7.40;;;5.00;99.90;;;;;;5065470;28;20196;-44
2021/10/13 05:32:09;;;;;;;7.65;6.80;;;5.00;99.90;;;;;;5072022;28;20198;-51
2021/10/13 05:34:36;;;;;;;8.35;7.45;;;5.10;99.90;;;;;;5066607;28;20301;-44
2021/10/13 05:37:03;;;;;;;9.10;7.03;;;5.30;99.90;;;;;;5069402;28;20195;-45
2021/10/13 05:39:30;;;;;;;8.60;6.82;;;5.30;99.90;;;;;;5070870;28;20199;-45
2021/10/13 05:41:57;;;;;;;7.10;6.40;;;5.30;99.90;;;;;;5071672;28;20443;-43
2021/10/13 05:44:25;;;;;;;11.82;7.57;;;5.30;99.90;;;;;;5076344;28;20230;-42
2021/10/13 05:46:52;;;;;;;6.85;6.25;;;5.20;99.90;;;;;;5073777;28;20217;-47
2021/10/13 05:49:19;;;;;;;9.00;6.18;;;5.20;99.90;;;;;;5075832;28;20512;-43
2021/10/13 05:51:46;;;;;;;7.07;6.07;;;5.20;99.90;;;;;;5071712;28;20195;-46
2021/10/13 05:54:13;;;;;;;7.10;6.03;;;5.40;99.90;;;;;;5069289;28;20227;-43
2021/10/13 05:56:41;;;;;;;7.03;6.30;;;5.30;99.90;;;;;;5070280;28;20239;-47
2021/10/13 05:59:08;;;;;;;8.70;6.30;;;5.30;99.90;;;;;;5053971;28;20466;-43
2021/10/13 06:01:35;;;;;;;8.45;6.35;;;5.40;99.90;;;;;;5069241;28;20199;-44
2021/10/13 06:04:03;;;;;;;6.18;5.57;;;5.50;99.90;;;;;;5079103;28;20297;-43
2021/10/13 06:06:30;;;;;;;8.57;6.68;;;5.60;99.90;;;;;;5081360;28;20198;-45
2021/10/13 06:08:57;;;;;;;7.13;6.53;;;5.50;99.90;;;;;;5062859;28;20244;-43
2021/10/13 06:11:24;;;;;;;7.13;5.65;;;5.60;99.90;;;;;;5078612;28;20195;-43
2021/10/13 06:13:52;;;;;;;7.57;5.45;;;5.70;99.90;;;;;;5080294;28;20569;-44
2021/10/13 06:16:21;;;;;;;6.40;4.65;;;5.80;99.90;;;;;;5080274;28;20206;-51
2021/10/13 06:18:50;;;;;;;9.93;7.50;;;5.80;99.90;;;;;;5081085;28;20265;-45
2021/10/13 06:21:21;;;;;;;10.55;5.85;;;5.90;99.90;;;;;;5081151;28;20206;-45
2021/10/13 06:23:50;;;;;;;8.88;5.82;;;5.70;99.90;;;;;;5079981;28;20231;-43
2021/10/13 06:26:18;;;;;;;7.78;5.95;;;5.80;99.90;;;;;;5072604;28;20206;-44
2021/10/13 06:28:45;;;;;;;5.63;4.93;;;5.80;99.90;;;;;;5062272;28;20244;-44
2021/10/13 06:31:12;;;;;;;5.65;4.53;;;5.70;99.90;;;;;;5072896;28;20209;-44
2021/10/13 06:33:39;;;;;;;6.60;4.85;;;5.70;99.90;;;;;;5073286;28;20253;-48
2021/10/13 06:36:07;;;;;;;5.18;4.65;;;5.80;99.90;;;;;;5072840;28;20521;-44
2021/10/13 06:38:35;;;;;;;5.93;4.95;;;5.80;99.90;;;;;;5065957;28;20246;-48
2021/10/13 06:41:06;;;;;;;5.25;4.75;;;5.80;99.90;;;;;;5074190;28;20241;-44
2021/10/13 06:43:33;;;;;;;7.22;5.40;;;5.90;99.90;;;;;;5070366;28;20225;-44
2021/10/13 06:46:00;;;;;;;6.10;5.57;;;5.80;99.90;;;;;;5067866;28;20202;-50
2021/10/13 06:48:27;;;;;;;8.60;5.63;;;5.80;99.90;;;;;;5067535;28;20206;-45
2021/10/13 06:50:54;;;;;;;6.22;5.35;;;5.80;99.90;;;;;;5072754;28;20248;-43
2021/10/13 06:53:21;;;;;;;8.93;4.78;;;5.90;99.90;;;;;;5062657;28;20226;-47
2021/10/13 06:55:48;;;;;;;7.20;5.30;;;5.90;99.90;;;;;;5070866;28;20209;-43
2021/10/13 06:58:15;;;;;;;5.28;4.75;;;5.90;99.90;;;;;;5069677;28;20255;-44
2021/10/13 07:00:43;;;;;;;5.15;4.65;;;6.00;99.90;;;;;;5070686;28;20210;-47
2021/10/13 07:03:10;;;;;;;7.07;5.50;;;6.20;99.90;;;;;;5068402;28;20283;-48
2021/10/13 07:05:38;;;;;;;6.30;5.10;;;6.30;99.90;;;;;;5079535;28;20552;-48
2021/10/13 07:08:05;;;;;;;4.60;4.20;;;6.20;99.90;;;;;;5070975;28;20199;-45
2021/10/13 07:10:33;;;;;;;5.38;4.63;;;6.20;99.90;;;;;;5067353;28;20402;-47
2021/10/13 07:13:00;;;;;;;5.60;4.60;;;6.30;99.90;;;;;;5064531;28;20426;-45
2021/10/13 07:15:27;;;;;;;4.35;3.95;;;6.40;99.90;;;;;;5068928;28;20202;-44
2021/10/13 07:17:54;;;;;;;6.25;4.75;;;6.40;99.90;;;;;;5074683;28;20204;-42
2021/10/13 07:20:24;;;;;;;5.25;4.55;;;6.50;99.90;;;;;;5064819;28;20476;-46
2021/10/13 07:22:51;;;;;;;6.43;4.72;;;6.70;99.90;;;;;;5067754;28;20215;-44
2021/10/13 07:25:23;;;;;;;5.18;3.90;;;6.80;99.90;;;;;;5061859;28;20203;-44
2021/10/13 07:27:51;;;;;;;5.63;5.13;;;7.00;99.90;;;;;;5071782;28;20199;-45
2021/10/13 07:30:23;;;;;;;5.80;5.20;;;7.20;99.90;;;;;;5064746;28;20218;-48
2021/10/13 07:32:54;;;;;;;7.35;4.50;;;7.40;99.90;;;;;;5066072;28;20457;-44
2021/10/13 07:35:21;;;;;;;7.30;4.53;;;7.40;99.90;;;;;;5068329;28;20433;-46
2021/10/13 07:37:50;;;;;;;4.82;4.40;;;7.30;99.90;;;;;;5067109;28;20198;-45
2021/10/13 07:40:18;;;;;;;13.57;7.22;;;7.50;99.90;;;;;;5070957;28;20191;-44
2021/10/13 07:42:47;;;;;;;9.57;5.35;;;7.80;99.90;;;;;;5072320;28;20522;-46
2021/10/13 07:45:15;;;;;;;6.38;4.55;;;8.00;99.90;;;;;;5062753;28;20262;-46
2021/10/13 07:47:43;;;;;;;6.07;5.47;;;8.00;99.90;;;;;;5065274;28;20485;-44
2021/10/13 07:50:11;;;;;;;6.90;5.22;;;8.10;99.90;;;;;;5061109;28;20249;-48
2021/10/13 07:52:38;;;;;;;6.78;5.45;;;8.00;99.90;;;;;;5061757;28;20241;-48
2021/10/13 07:55:06;;;;;;;7.68;5.63;;;7.80;99.90;;;;;;5063068;28;20248;-46
2021/10/13 07:57:34;;;;;;;6.78;5.72;;;7.70;99.90;;;;;;5060228;28;20204;-44
2021/10/13 08:00:01;;;;;;;6.57;5.93;;;7.80;99.90;;;;;;5065049;28;20270;-44
2021/10/13 08:02:28;;;;;;;5.13;4.72;;;7.90;99.90;;;;;;5060009;28;20290;-49
2021/10/13 08:04:55;;;;;;;5.30;4.80;;;8.00;99.90;;;;;;5074496;28;20289;-44
2021/10/13 08:07:22;;;;;;;6.03;5.30;;;8.00;99.90;;;;;;5075690;28;20249;-44
2021/10/13 08:09:49;;;;;;;8.15;4.95;;;8.30;99.90;;;;;;5060598;28;20195;-46
2021/10/13 08:12:16;;;;;;;4.93;4.15;;;8.10;99.90;;;;;;5070705;28;20195;-44
2021/10/13 08:14:43;;;;;;;4.90;4.40;;;7.90;99.90;;;;;;5074406;28;20272;-48
2021/10/13 08:17:11;;;;;;;6.30;5.03;;;7.90;99.90;;;;;;5077918;28;20299;-45
2021/10/13 08:19:38;;;;;;;4.70;4.40;;;8.00;99.90;;;;;;5067825;28;20199;-44
2021/10/13 08:22:05;;;;;;;5.18;4.57;;;8.20;99.90;;;;;;5072186;28;20203;-46
2021/10/13 08:24:34;;;;;;;5.82;5.22;;;8.50;99.90;;;;;;5078563;28;20464;-47
2021/10/13 08:27:05;;;;;;;5.03;4.53;;;8.90;99.90;;;;;;5068131;28;20233;-45
2021/10/13 08:29:32;;;;;;;4.85;4.45;;;8.90;99.90;;;;;;5073229;28;20203;-47
2021/10/13 08:32:00;;;;;;;4.53;4.07;;;9.10;99.90;;;;;;5066172;28;20210;-44
2021/10/13 08:34:27;;;;;;;3.83;3.42;;;9.50;99.90;;;;;;5063341;28;20289;-54
2021/10/13 08:36:54;;;;;;;4.10;3.42;;;10.10;99.90;;;;;;5070037;28;20200;-45
2021/10/13 08:39:21;;;;;;;5.60;4.97;;;10.40;99.90;;;;;;5064722;28;20510;-49
2021/10/13 08:41:49;;;;;;;3.45;3.15;;;10.60;99.90;;;;;;5068713;28;20200;-44
2021/10/13 08:44:17;;;;;;;5.22;4.60;;;10.70;99.90;;;;;;5063054;28;20220;-47
2021/10/13 08:46:44;;;;;;;3.78;3.28;;;10.60;99.90;;;;;;5062672;28;20703;-46
2021/10/13 08:49:11;;;;;;;3.90;3.50;;;10.40;99.90;;;;;;5064998;28;20204;-50
2021/10/13 08:51:40;;;;;;;3.20;2.92;;;10.40;99.90;;;;;;5065200;28;20430;-49
2021/10/13 08:54:13;;;;;;;4.00;3.70;;;10.60;99.90;;;;;;5064958;28;20250;-45
2021/10/13 08:56:40;;;;;;;5.35;3.47;;;10.90;99.90;;;;;;5067106;28;20263;-47
2021/10/13 08:59:42;;;;;;;3.67;3.38;;;11.20;99.90;;;;;;5071380;28;20201;-47
2021/10/13 09:02:11;;;;;;;5.50;3.30;;;11.50;99.90;;;;;;5062936;28;20395;-50
2021/10/13 09:05:13;;;;;;;4.30;3.88;;;11.40;99.90;;;;;;5067855;28;20231;-46
2021/10/13 09:07:52;;;;;;;3.28;3.03;;;11.10;99.90;;;;;;5076016;28;20244;-47
2021/10/13 09:10:27;;;;;;;3.00;2.80;;;10.80;99.90;;;;;;5066216;28;20197;-45
2021/10/13 09:12:56;;;;;;;3.20;2.95;;;10.60;99.90;;;;;;5069030;28;20271;-43
2021/10/13 09:15:26;;;;;;;3.92;3.17;;;10.50;99.90;;;;;;5073987;28;20372;-48
2021/10/13 09:17:56;;;;;;;3.33;3.03;;;10.30;99.90;;;;;;5072148;28;20231;-47
2021/10/13 09:20:27;;;;;;;4.97;3.35;;;10.50;99.90;;;;;;5064665;28;20258;-45
2021/10/13 09:23:09;;;;;;;3.75;3.35;;;10.50;99.90;;;;;;5078673;28;20223;-45
2021/10/13 09:25:37;;;;;;;3.00;2.33;;;10.70;99.90;;;;;;5072205;28;20285;-50
2021/10/13 09:28:05;;;;;;;3.40;3.10;;;10.80;99.90;;;;;;5069559;28;20237;-46
2021/10/13 09:30:35;;;;;;;3.75;2.38;;;10.80;99.90;;;;;;5074607;28;20405;-48
2021/10/13 09:33:13;;;;;;;2.97;2.33;;;10.90;99.90;;;;;;5072379;28;20260;-44
2021/10/13 09:35:49;;;;;;;3.08;2.85;;;11.50;99.90;;;;;;5068096;28;20206;-45
2021/10/13 09:38:26;;;;;;;3.10;2.80;;;11.80;99.90;;;;;;5071163;28;20245;-48
2021/10/13 09:40:58;;;;;;;3.15;2.95;;;12.10;99.90;;;;;;5069774;28;20417;-47
2021/10/13 09:43:30;;;;;;;2.95;2.75;;;12.70;99.90;;;;;;5080216;28;20409;-45
2021/10/13 09:46:12;;;;;;;3.85;3.50;;;12.80;99.90;;;;;;5073030;28;20198;-43
2021/10/13 09:48:43;;;;;;;3.47;3.17;;;12.50;99.90;;;;;;5071545;28;20236;-45
2021/10/13 09:51:20;;;;;;;4.80;3.35;;;12.10;99.90;;;;;;5073846;28;20202;-48
2021/10/13 09:53:49;;;;;;;7.22;3.20;;;11.70;99.90;;;;;;5067162;28;20262;-43
2021/10/13 09:56:43;;;;;;;3.72;2.65;;;11.70;99.90;;;;;;5070921;28;20504;-43
2021/10/13 09:59:16;;;;;;;4.65;2.42;;;11.60;99.90;;;;;;5072150;28;20228;-44
2021/10/13 10:01:49;;;;;;;2.55;2.35;;;11.60;99.90;;;;;;5064014;28;20555;-44
2021/10/13 10:04:25;;;;;;;2.20;2.00;;;11.70;99.90;;;;;;5077492;28;20230;-43
2021/10/13 10:06:56;;;;;;;4.35;2.92;;;11.60;99.90;;;;;;5073327;28;20198;-44
2021/10/13 10:09:25;;;;;;;2.60;2.42;;;11.60;99.90;;;;;;5075343;28;20198;-45
2021/10/13 10:12:06;;;;;;;4.05;3.30;;;11.80;99.90;;;;;;5078972;28;20442;-47
2021/10/13 10:14:43;;;;;;;2.28;2.08;;;12.00;99.90;;;;;;5067866;28;20222;-44
2021/10/13 10:17:12;;;;;;;1.95;1.85;;;12.20;99.90;;;;;;5073626;28;20206;-47
2021/10/13 10:19:42;;;;;;;3.45;2.55;;;12.20;99.90;;;;;;5068555;28;20203;-45
2021/10/13 10:22:13;;;;;;;2.67;2.40;;;12.40;99.90;;;;;;5069158;28;20252;-47
2021/10/13 10:24:51;;;;;;;2.08;1.80;;;12.30;99.90;;;;;;5065423;28;20218;-46
2021/10/13 10:27:46;;;;;;;2.17;2.08;;;12.30;99.90;;;;;;5071617;28;20235;-46
2021/10/13 10:30:15;;;;;;;2.50;2.30;;;12.30;99.90;;;;;;5059411;28;20544;-44
2021/10/13 10:33:03;;;;;;;2.67;2.47;;;12.30;99.90;;;;;;5064959;28;20230;-44
2021/10/13 10:35:41;;;;;;;2.95;2.67;;;12.40;99.90;;;;;;5061036;28;20203;-44
2021/10/13 10:38:10;;;;;;;6.10;2.63;;;12.70;99.90;;;;;;5064982;28;20202;-47
2021/10/13 10:40:38;;;;;;;5.03;2.88;;;12.70;99.90;;;;;;5066234;28;20206;-45
2021/10/13 10:43:26;;;;;;;3.75;3.00;;;12.50;99.90;;;;;;5061868;28;20229;-45
2021/10/13 10:45:58;;;;;;;2.75;2.55;;;12.10;99.90;;;;;;5063839;28;20459;-44
2021/10/13 10:48:45;;;;;;;2.70;2.50;;;11.60;99.90;;;;;;5069141;28;20563;-45
2021/10/13 10:51:13;;;;;;;3.10;2.90;;;11.40;99.90;;;;;;5069857;28;20264;-46
2021/10/13 10:53:41;;;;;;;2.97;2.78;;;11.30;99.90;;;;;;5068240;28;20276;-44
2021/10/13 10:56:16;;;;;;;3.53;3.13;;;11.40;99.90;;;;;;5068108;28;20198;-45
2021/10/13 10:58:58;;;;;;;3.00;2.58;;;11.20;99.90;;;;;;5073323;28;20196;-41
2021/10/13 11:01:25;;;;;;;3.35;3.13;;;11.30;99.90;;;;;;5070774;28;20209;-45
2021/10/13 11:03:53;;;;;;;2.75;2.55;;;11.40;99.90;;;;;;5066623;28;20225;-48
2021/10/13 11:06:26;;;;;;;3.35;2.90;;;11.70;99.90;;;;;;5071025;28;20501;-44
2021/10/13 11:09:03;;;;;;;3.45;3.15;;;11.80;99.90;;;;;;5068359;28;20250;-48
2021/10/13 11:11:39;;;;;;;4.65;2.60;;;11.90;99.90;;;;;;5070390;28;20527;-47
2021/10/13 11:14:11;;;;;;;2.97;2.78;;;11.90;99.90;;;;;;5062859;28;20229;-47
2021/10/13 11:16:54;;;;;;;2.60;2.40;;;11.80;99.90;;;;;;5065820;28;20280;-50
2021/10/13 11:19:33;;;;;;;3.30;2.75;;;11.60;99.90;;;;;;5078687;28;20444;-48
2021/10/13 11:22:08;;;;;;;4.38;2.50;;;11.50;99.90;;;;;;5048255;28;20208;-45
2021/10/13 11:24:37;;;;;;;3.08;2.78;;;11.70;99.90;;;;;;5063618;28;20587;-46
2021/10/13 11:27:05;;;;;;;2.95;2.03;;;11.60;99.90;;;;;;5062739;28;20236;-44
2021/10/13 11:29:36;;;;;;;4.38;3.00;;;11.40;99.90;;;;;;5074758;28;20210;-50
2021/10/13 11:32:12;;;;;;;6.07;2.42;;;11.30;99.90;;;;;;5063702;28;20194;-46
2021/10/13 11:34:56;;;;;;;2.20;2.10;;;11.30;99.90;;;;;;5071095;28;20201;-47
2021/10/13 11:37:28;;;;;;;18.40;2.53;;;11.50;99.90;;;;;;5072671;28;20217;-44
2021/10/13 11:39:55;;;;;;;6.85;2.45;;;11.40;99.90;;;;;;5067028;28;20202;-45
2021/10/13 11:42:25;;;;;;;3.05;2.75;;;11.50;99.90;;;;;;5064292;28;20206;-44
2021/10/13 11:44:55;;;;;;;2.00;1.90;;;11.60;99.90;;;;;;5076121;28;20220;-47
2021/10/13 11:47:34;;;;;;;2.53;2.42;;;11.70;99.90;;;;;;5072205;28;20191;-44
2021/10/13 11:50:06;;;;;;;2.55;2.00;;;11.70;99.90;;;;;;5070213;28;20197;-46
2021/10/13 11:52:35;;;;;;;2.47;2.28;;;11.40;99.90;;;;;;5076857;28;20231;-45
2021/10/13 11:55:14;;;;;;;2.85;2.65;;;11.10;99.90;;;;;;5075890;28;20193;-44
2021/10/13 11:57:49;;;;;;;2.90;2.28;;;11.10;99.90;;;;;;5078649;28;20235;-45
2021/10/13 12:00:31;;;;;;;3.20;1.95;;;11.00;99.90;;;;;;5078441;28;20231;-44
2021/10/13 12:03:09;;;;;;;1.83;1.73;;;11.00;99.90;;;;;;5077679;28;20225;-44
2021/10/13 12:05:41;;;;;;;1.90;1.80;;;11.10;99.90;;;;;;5074383;28;20288;-52
2021/10/13 12:08:14;;;;;;;3.90;2.40;;;11.30;99.90;;;;;;5079105;28;20565;-45
2021/10/13 12:11:02;;;;;;;2.92;2.28;;;11.30;99.90;;;;;;5076431;28;20218;-46
2021/10/13 12:13:32;;;;;;;1.90;1.80;;;11.40;99.90;;;;;;5063515;28;20243;-44
2021/10/13 12:16:21;;;;;;;2.10;1.90;;;11.40;99.90;;;;;;5068023;28;20201;-47
2021/10/13 12:18:49;;;;;;;1.85;1.75;;;11.60;99.90;;;;;;5072362;28;20193;-47
2021/10/13 12:21:18;;;;;;;1.83;1.70;;;11.50;99.90;;;;;;5065625;28;20203;-44
2021/10/13 12:23:47;;;;;;;1.13;1.13;;;11.30;99.90;;;;;;5078317;28;20236;-44
2021/10/13 12:26:23;;;;;;;1.33;1.25;;;11.30;99.90;;;;;;5080695;28;20242;-44
2021/10/13 12:28:56;;;;;;;1.23;1.13;;;11.20;99.90;;;;;;5065159;28;20397;-46
2021/10/13 12:31:26;;;;;;;2.00;1.88;;;11.20;99.90;;;;;;5066858;28;20205;-44
2021/10/13 12:34:11;;;;;;;1.98;1.88;;;11.10;99.90;;;;;;5080097;28;20423;-44
2021/10/13 12:36:40;;;;;;;1.60;1.35;;;11.20;99.90;;;;;;5075023;28;20253;-45
2021/10/13 12:39:16;;;;;;;1.40;1.30;;;11.40;99.90;;;;;;5071491;28;20236;-49
2021/10/13 12:41:45;;;;;;;2.20;1.50;;;11.60;99.90;;;;;;5069024;28;20630;-45
2021/10/13 12:44:18;;;;;;;2.20;2.03;;;11.90;99.90;;;;;;5067920;28;20246;-44
2021/10/13 12:46:51;;;;;;;3.05;1.98;;;12.00;99.90;;;;;;5069835;28;20266;-45
2021/10/13 12:49:20;;;;;;;1.60;1.50;;;11.90;99.90;;;;;;5071443;28;20199;-45
2021/10/13 12:52:01;;;;;;;1.77;1.63;;;11.80;99.90;;;;;;5069583;28;20230;-45
2021/10/13 12:54:31;;;;;;;2.35;1.50;;;11.70;99.90;;;;;;5068727;28;20217;-49
2021/10/13 12:56:59;;;;;;;1.35;1.30;;;11.70;99.90;;;;;;5078250;28;20226;-44
2021/10/13 12:59:27;;;;;;;1.05;0.98;;;11.80;99.90;;;;;;5071271;28;20203;-45
2021/10/13 13:01:55;;;;;;;1.65;0.95;;;11.50;99.90;;;;;;5068222;28;20205;-42
2021/10/13 13:04:23;;;;;;;2.33;2.10;;;11.10;99.90;;;;;;5068727;28;20258;-47
2021/10/13 13:06:50;;;;;;;2.00;1.15;;;10.80;99.90;;;;;;5072125;28;20202;-45
2021/10/13 13:09:17;;;;;;;1.55;1.45;;;10.60;99.90;;;;;;5067094;28;20198;-44
2021/10/13 13:11:45;;;;;;;1.17;1.17;;;10.40;99.90;;;;;;5069650;28;20206;-47